Time;durP1;ratioP1;P1;durP2;ratioP2;P2;SDS_P1;SDS_P2;PMS_P1;PMS_P2;Temp;Humidity;BMP_temperature;BMP_pressure;BME280_temperature;BME280_humidity;BME280_pressure;Samples;Min_cycle;Max_cycle;Signal;HPM_P1;HPM_P2
2022/06/02 00:02:20;;;;;;;11.40;9.77;;;;;;;7.62;95.46;101955.84;5094378;28;20027;-71
2022/06/02 00:04:58;;;;;;;11.98;10.15;;;;;;;7.60;95.82;101953.25;5093114;28;20039;-71
2022/06/02 00:07:44;;;;;;;14.70;10.00;;;;;;;7.62;95.45;101954.16;5094118;28;20051;-71
2022/06/02 00:10:30;;;;;;;12.30;10.48;;;;;;;7.62;95.20;101950.66;5094347;28;20048;-71
2022/06/02 00:12:59;;;;;;;11.10;9.90;;;;;;;7.57;95.11;101953.22;5093402;28;20067;-71
2022/06/02 00:15:31;;;;;;;11.75;9.32;;;;;;;7.61;95.00;101962.78;5094008;28;20055;-71
2022/06/02 00:18:05;;;;;;;14.95;9.95;;;;;;;7.57;94.83;101958.44;5093978;28;20035;-71
2022/06/02 00:20:42;;;;;;;12.57;9.57;;;;;;;7.51;94.83;101954.06;5092985;28;20420;-71
2022/06/02 00:23:22;;;;;;;12.65;9.82;;;;;;;7.57;95.00;101955.84;5094092;28;20063;-71
2022/06/02 00:26:02;;;;;;;13.10;10.10;;;;;;;7.56;94.76;101955.84;5092629;28;20059;-71
2022/06/02 00:28:46;;;;;;;12.52;9.50;;;;;;;7.49;94.71;101957.53;5093756;28;20479;-71
2022/06/02 00:31:14;;;;;;;12.45;10.35;;;;;;;7.44;94.75;101957.47;5093636;28;20464;-71
2022/06/02 00:34:04;;;;;;;14.02;10.40;;;;;;;7.43;95.35;101960.06;5092481;28;20493;-71
2022/06/02 00:36:37;;;;;;;14.32;10.57;;;;;;;7.42;95.80;101966.09;5093737;28;20032;-71
2022/06/02 00:39:03;;;;;;;17.35;12.18;;;;;;;7.34;95.57;101957.41;5093813;28;20024;-71
2022/06/02 00:41:54;;;;;;;14.30;10.93;;;;;;;7.38;95.55;101961.75;5092685;28;20032;-71
2022/06/02 00:44:23;;;;;;;13.55;10.27;;;;;;;7.33;95.54;101963.44;5093359;28;20024;-71
2022/06/02 00:47:21;;;;;;;13.05;10.63;;;;;;;7.28;95.66;101966.84;5092599;28;20111;-71
2022/06/02 00:50:08;;;;;;;16.08;10.73;;;;;;;7.24;95.99;101967.69;5093377;28;20028;-71
2022/06/02 00:52:50;;;;;;;12.15;10.10;;;;;;;7.16;96.95;101965.88;5093224;28;20021;-71
2022/06/02 00:58:20;;;;;;;14.15;10.88;;;;;;;7.04;97.35;101971.84;5093827;28;20043;-71
2022/06/02 01:00:50;;;;;;;16.73;11.20;;;;;;;7.01;97.60;101974.41;5093015;28;20361;-70
2022/06/02 01:03:25;;;;;;;12.65;10.50;;;;;;;7.09;98.02;101975.34;5092905;28;20085;-70
2022/06/02 01:06:27;;;;;;;14.10;10.27;;;;;;;7.08;96.67;101971.00;5092758;28;20058;-71
2022/06/02 01:09:02;;;;;;;14.63;10.82;;;;;;;6.99;97.11;101973.50;5092210;28;20104;-71
2022/06/02 01:11:46;;;;;;;13.15;10.40;;;;;;;6.99;96.47;101964.00;5093259;28;20089;-71
2022/06/02 01:14:28;;;;;;;11.98;10.63;;;;;;;6.93;97.11;101973.44;5092948;28;20073;-71
2022/06/02 01:17:05;;;;;;;12.95;10.63;;;;;;;6.82;96.66;101972.50;5092106;28;20034;-71
2022/06/02 01:19:52;;;;;;;12.68;10.82;;;;;;;6.76;97.64;101974.16;5092749;28;20069;-71
2022/06/02 01:22:36;;;;;;;14.18;11.05;;;;;;;6.75;97.53;101971.56;5092201;28;20832;-71
2022/06/02 01:25:30;;;;;;;12.73;10.57;;;;;;;6.76;97.19;101966.38;5093046;28;20063;-71
2022/06/02 01:28:18;;;;;;;15.00;10.80;;;;;;;6.77;97.37;101962.09;5093233;28;20031;-71
2022/06/02 01:30:55;;;;;;;14.60;12.02;;;;;;;6.69;97.65;101962.00;5091770;28;20059;-71
2022/06/02 01:33:23;;;;;;;15.60;12.18;;;;;;;6.70;97.77;101976.72;5092754;28;20585;-71
2022/06/02 01:36:12;;;;;;;16.58;12.23;;;;;;;6.74;97.84;101975.00;5092613;28;20058;-71
2022/06/02 01:38:50;;;;;;;17.15;12.02;;;;;;;6.73;97.58;101971.53;5096869;28;20039;-71
2022/06/02 01:41:27;;;;;;;15.82;11.57;;;;;;;6.76;97.40;101975.88;5096946;28;20020;-71
2022/06/02 01:44:08;;;;;;;16.23;12.32;;;;;;;6.75;97.11;101975.00;5095742;28;20474;-71
2022/06/02 01:47:01;;;;;;;18.35;12.32;;;;;;;6.74;97.08;101980.19;5096779;28;20028;-71
2022/06/02 01:49:45;;;;;;;15.80;11.88;;;;;;;6.63;96.81;101974.88;5096343;28;20046;-71
2022/06/02 01:52:10;;;;;;;;;;;;;;;6.58;94.97;101971.38;5096576;28;20099;-71
2022/06/02 01:54:51;;;;;;;18.37;12.63;;;;;;;6.47;97.16;101962.59;5096374;28;20420;-71
2022/06/02 01:57:55;;;;;;;21.88;13.00;;;;;;;6.40;97.64;101976.34;5095949;28;20278;-71
2022/06/02 02:00:23;;;;;;;18.63;12.88;;;;;;;6.39;98.07;101987.56;5062847;28;20044;-71
2022/06/02 02:03:01;;;;;;;18.85;14.38;;;;;;;6.33;98.65;101976.25;5096407;28;20074;-71
2022/06/02 02:05:27;;;;;;;20.23;14.68;;;;;;;6.26;98.04;101977.06;5095755;28;20031;-71
2022/06/02 02:08:14;;;;;;;23.88;14.60;;;;;;;6.21;98.58;101985.59;5096165;28;20073;-71
2022/06/02 02:10:58;;;;;;;22.58;14.20;;;;;;;6.15;98.53;101981.22;5096049;28;20121;-71
2022/06/02 02:13:49;;;;;;;25.55;15.30;;;;;;;6.13;98.55;101982.91;5095692;28;20039;-71
2022/06/02 02:16:24;;;;;;;23.35;15.00;;;;;;;6.10;98.60;101980.28;5096493;28;20024;-71
2022/06/02 02:19:44;;;;;;;25.02;14.52;;;;;;;6.05;98.36;101980.25;5095325;28;20027;-71
2022/06/02 02:22:18;;;;;;;23.40;14.85;;;;;;;5.97;98.50;101983.56;5013922;28;20037;-71
2022/06/02 02:25:03;;;;;;;25.88;15.68;;;;;;;5.89;98.72;101978.25;5083604;28;20040;-71
2022/06/02 02:30:38;;;;;;;21.75;14.75;;;;;;;5.76;99.45;101987.56;5096059;28;20055;-71
2022/06/02 02:33:36;;;;;;;23.05;15.07;;;;;;;5.77;99.44;101991.03;5095353;28;20028;-71
2022/06/02 02:36:25;;;;;;;19.05;15.07;;;;;;;5.79;99.38;101994.50;5096126;28;20031;-71
2022/06/02 02:39:02;;;;;;;21.73;14.90;;;;;;;5.77;99.20;101991.88;5095654;28;20491;-71
2022/06/02 02:41:38;;;;;;;18.08;14.27;;;;;;;5.76;99.29;101992.75;5095168;28;20581;-71
2022/06/02 02:44:25;;;;;;;24.25;15.57;;;;;;;5.81;99.66;101996.25;5095741;28;20028;-71
2022/06/02 02:47:09;;;;;;;22.50;15.77;;;;;;;5.89;99.33;101992.94;5094855;28;20396;-71
2022/06/02 02:49:41;;;;;;;21.08;15.18;;;;;;;5.91;98.50;101996.38;5095641;28;20036;-71
2022/06/02 02:52:40;;;;;;;21.65;16.15;;;;;;;5.92;98.86;101987.75;5095659;28;20032;-71
2022/06/02 02:55:14;;;;;;;22.70;15.25;;;;;;;5.89;98.49;101987.75;5094707;28;20047;-71
2022/06/02 02:58:02;;;;;;;27.73;14.88;;;;;;;5.87;98.47;101992.88;5095366;28;20035;-71
2022/06/02 03:00:39;;;;;;;21.95;14.25;;;;;;;5.85;97.85;101997.16;5094678;28;20058;-71
2022/06/02 03:03:26;;;;;;;23.25;15.27;;;;;;;5.85;98.08;101997.16;5095685;28;20030;-71
2022/06/02 03:06:20;;;;;;;21.40;15.88;;;;;;;5.91;98.25;102007.59;5095116;28;20467;-71
2022/06/02 03:09:03;;;;;;;24.23;15.13;;;;;;;5.94;98.29;102001.63;5094339;28;20020;-71
2022/06/02 03:11:53;;;;;;;18.90;14.60;;;;;;;5.86;98.04;102004.09;5095261;28;20073;-71
2022/06/02 03:14:30;;;;;;;24.23;15.55;;;;;;;5.75;98.31;102013.41;5095293;28;20278;-70
2022/06/02 03:17:37;;;;;;;22.17;16.27;;;;;;;5.70;98.87;102008.16;5095050;28;20066;-71
2022/06/02 03:20:11;;;;;;;24.63;15.82;;;;;;;5.63;98.96;102019.28;5067478;28;20050;-71
2022/06/02 03:22:46;;;;;;;23.65;16.90;;;;;;;5.57;99.35;102009.69;5093901;28;20038;-71
2022/06/02 03:25:25;;;;;;;25.73;17.55;;;;;;;5.53;99.84;102018.25;5094907;28;20499;-71
2022/06/02 03:28:28;;;;;;;25.33;17.40;;;;;;;5.49;99.85;102026.78;5094801;28;20028;-70
2022/06/02 03:30:53;;;;;;;28.83;17.38;;;;;;;5.47;100.00;102025.06;5093790;28;20380;-71
2022/06/02 03:33:41;;;;;;;27.27;18.23;;;;;;;5.42;100.00;102022.38;5094939;28;20020;-71
2022/06/02 03:36:18;;;;;;;26.65;17.95;;;;;;;5.51;100.00;102029.41;5094035;28;20277;-71
2022/06/02 03:38:52;;;;;;;24.23;17.65;;;;;;;5.57;100.00;102035.56;5094625;28;20051;-71
2022/06/02 03:41:36;;;;;;;26.02;18.55;;;;;;;5.58;99.89;102029.53;5094813;28;20055;-71
2022/06/02 03:44:18;;;;;;;28.08;19.15;;;;;;;5.57;100.00;102042.47;5093751;28;20464;-71
2022/06/02 03:46:53;;;;;;;28.20;18.85;;;;;;;5.57;99.70;102047.63;5094527;28;20024;-71
2022/06/02 03:49:37;;;;;;;24.88;18.33;;;;;;;5.58;99.74;102044.19;5094443;28;20055;-71
2022/06/02 03:52:11;;;;;;;27.48;17.42;;;;;;;5.60;99.71;102038.19;5093682;28;20077;-71
2022/06/02 03:54:54;;;;;;;25.05;17.40;;;;;;;5.60;99.26;102034.75;5093908;28;20051;-71
2022/06/02 03:57:37;;;;;;;27.15;17.17;;;;;;;5.63;99.74;102042.56;5093503;28;20043;-71
2022/06/02 04:00:26;;;;;;;28.48;18.63;;;;;;;5.69;99.42;102047.84;5093942;28;20040;-71
2022/06/02 04:02:54;;;;;;;24.77;18.70;;;;;;;5.66;99.31;102037.44;5082971;28;20510;-71
2022/06/02 04:05:23;;;;;;;24.58;18.10;;;;;;;5.76;98.87;102047.09;5093294;28;20032;-71
2022/06/02 04:07:55;;;;;;;26.23;18.95;;;;;;;5.81;98.99;102050.59;5094017;28;20043;-71
2022/06/02 04:10:56;;;;;;;30.27;20.35;;;;;;;5.84;98.98;102042.88;5094043;28;20031;-71
2022/06/02 04:13:39;;;;;;;27.20;19.70;;;;;;;5.88;99.12;102054.16;5094024;28;20160;-71
2022/06/02 04:16:10;;;;;;;25.33;18.20;;;;;;;5.91;99.33;102053.31;5093977;28;20540;-71
2022/06/02 04:18:50;;;;;;;26.17;18.70;;;;;;;5.96;99.53;102062.09;5092919;28;20107;-71
2022/06/02 04:21:31;;;;;;;28.23;19.55;;;;;;;5.96;100.00;102056.91;5094099;28;20039;-71
2022/06/02 04:24:18;;;;;;;28.58;19.60;;;;;;;6.04;100.00;102063.06;5093914;28;20028;-71
2022/06/02 04:27:11;;;;;;;31.30;20.00;;;;;;;6.13;100.00;102063.19;5092674;28;20452;-71
2022/06/02 04:30:10;;;;;;;32.10;21.70;;;;;;;6.17;100.00;102067.56;5093549;28;20177;-71
2022/06/02 04:32:51;;;;;;;31.77;22.50;;;;;;;6.26;100.00;102067.69;5092919;28;20110;-71
2022/06/02 04:35:19;;;;;;;35.42;22.38;;;;;;;6.35;100.00;102071.28;5093848;28;20024;-71
2022/06/02 04:37:59;;;;;;;34.08;24.67;;;;;;;6.38;100.00;102072.19;5093380;28;20147;-71
2022/06/02 04:40:45;;;;;;;35.03;23.42;;;;;;;6.47;100.00;102067.09;5092651;28;20032;-71
2022/06/02 04:43:24;;;;;;;35.83;24.15;;;;;;;6.55;100.00;102073.25;5093665;28;20016;-71
2022/06/02 04:46:17;;;;;;;31.80;23.27;;;;;;;6.63;100.00;102078.53;5093318;28;20038;-71
2022/06/02 04:49:04;;;;;;;36.88;24.00;;;;;;;6.72;100.00;102076.06;5093198;28;20044;-71
2022/06/02 04:51:59;;;;;;;34.60;24.27;;;;;;;6.79;100.00;102072.69;5093549;28;20372;-71
2022/06/02 04:54:36;;;;;;;35.08;24.40;;;;;;;6.81;100.00;102067.53;5092546;28;20464;-72
2022/06/02 04:57:32;;;;;;;34.03;24.67;;;;;;;6.92;100.00;102075.41;5093326;28;20111;-71
2022/06/02 05:00:20;;;;;;;35.58;25.42;;;;;;;7.00;100.00;102073.81;5093304;28;20028;-71
2022/06/02 05:03:18;;;;;;;36.03;26.63;;;;;;;7.08;100.00;102079.06;5092980;28;20027;-71
2022/06/02 05:06:02;;;;;;;40.15;26.85;;;;;;;7.13;100.00;102074.78;5092727;28;20488;-71
2022/06/02 05:08:29;;;;;;;;;;;;;;;7.20;100.00;102086.97;5092877;28;20028;-71
2022/06/02 05:11:10;;;;;;;42.45;28.02;;;;;;;7.27;100.00;102079.25;5092137;28;19958;-71
2022/06/02 05:13:54;;;;;;;42.53;28.30;;;;;;;7.34;100.00;102079.31;5092910;28;20024;-71
2022/06/02 05:16:45;;;;;;;38.72;27.77;;;;;;;7.41;100.00;102081.13;5092464;28;20093;-71
2022/06/02 05:19:28;;;;;;;43.33;29.08;;;;;;;7.51;100.00;102075.16;5092943;28;20498;-71
2022/06/02 05:22:25;;;;;;;40.42;27.05;;;;;;;7.60;100.00;102083.03;5091877;28;20024;-71
2022/06/02 05:25:34;;;;;;;38.85;27.55;;;;;;;7.70;100.00;102083.97;5092723;28;20036;-71
2022/06/02 05:28:36;;;;;;;35.75;26.25;;;;;;;7.81;100.00;102089.25;5092879;28;20020;-71
2022/06/02 05:31:14;;;;;;;38.90;27.60;;;;;;;7.91;100.00;102072.88;5092717;28;20479;-71
2022/06/02 05:34:20;;;;;;;38.50;27.80;;;;;;;8.00;100.00;102080.72;5092722;28;20032;-71
2022/06/02 05:37:00;;;;;;;41.03;28.90;;;;;;;8.12;100.00;102077.34;5091740;28;20025;-71
2022/06/02 05:39:40;;;;;;;43.08;30.10;;;;;;;8.19;100.00;102074.78;5092981;28;20054;-71
2022/06/02 05:42:13;;;;;;;42.97;30.33;;;;;;;8.28;100.00;102076.59;5092657;28;20467;-71
2022/06/02 05:44:44;;;;;;;46.70;32.20;;;;;;;8.36;100.00;102076.63;5092472;28;20060;-71
2022/06/02 05:47:37;;;;;;;42.55;31.50;;;;;;;8.47;100.00;102084.50;5092727;28;20024;-71
2022/06/02 05:50:30;;;;;;;42.83;30.33;;;;;;;8.58;100.00;102082.84;5091882;28;20071;-71
2022/06/02 05:52:55;;;;;;;41.75;30.10;;;;;;;8.66;100.00;102092.41;5092830;28;20054;-71
2022/06/02 05:55:29;;;;;;;46.85;32.25;;;;;;;8.74;100.00;102091.56;5092423;28;20487;-71
2022/06/02 05:58:33;;;;;;;50.15;33.42;;;;;;;8.80;100.00;102079.47;5092035;28;20024;-71
2022/06/02 06:01:04;;;;;;;40.88;29.65;;;;;;;8.95;100.00;102098.56;5092491;28;20486;-71
2022/06/02 06:04:03;;;;;;;42.25;29.98;;;;;;;9.03;100.00;102095.16;5091851;28;20097;-71
2022/06/02 06:06:46;;;;;;;39.80;28.67;;;;;;;9.17;100.00;102108.19;5092792;28;20050;-71
2022/06/02 06:09:43;;;;;;;37.80;26.67;;;;;;;9.28;99.79;102108.19;5092625;28;20032;-71
2022/06/02 06:12:14;;;;;;;32.53;24.42;;;;;;;9.38;98.46;102107.34;5091668;28;20078;-71
2022/06/02 06:14:57;;;;;;;34.45;25.17;;;;;;;9.46;98.70;102110.84;5092381;28;20016;-72
2022/06/02 06:17:30;;;;;;;36.30;26.67;;;;;;;9.58;99.03;102112.56;5091927;28;20035;-71
2022/06/02 06:20:50;;;;;;;36.22;26.13;;;;;;;9.68;97.82;102108.25;5092343;28;20496;-71
2022/06/02 06:23:23;;;;;;;35.97;25.75;;;;;;;9.79;97.61;102122.16;5094650;28;20069;-71
2022/06/02 06:26:16;;;;;;;32.88;25.70;;;;;;;9.89;97.57;102121.28;5095230;28;20039;-71
2022/06/02 06:29:27;;;;;;;32.38;24.42;;;;;;;10.02;96.85;102123.00;5095955;28;20027;-71
2022/06/02 06:32:19;;;;;;;33.55;24.90;;;;;;;10.13;95.75;102117.78;5086393;28;20436;-71
2022/06/02 06:35:22;;;;;;;32.38;24.15;;;;;;;10.25;95.55;102117.78;5095741;28;20027;-71
2022/06/02 06:38:06;;;;;;;29.50;22.52;;;;;;;10.39;96.24;102122.13;5065918;28;20044;-71
2022/06/02 06:40:31;;;;;;;26.52;20.33;;;;;;;10.50;95.11;102129.06;5094856;28;20047;-72
2022/06/02 06:43:11;;;;;;;25.83;19.58;;;;;;;10.59;94.83;102130.75;5095887;28;20483;-71
2022/06/02 06:45:52;;;;;;;24.25;18.35;;;;;;;10.69;94.85;102129.88;5094458;28;20181;-71
2022/06/02 06:48:35;;;;;;;23.13;18.08;;;;;;;10.81;94.82;102135.91;5095778;28;20035;-72
2022/06/02 06:51:10;;;;;;;20.45;16.88;;;;;;;10.88;91.12;102141.09;5095790;28;20028;-71
2022/06/02 06:53:49;;;;;;;20.63;17.23;;;;;;;10.94;92.42;102140.19;5094596;28;20069;-72
2022/06/02 06:56:35;;;;;;;23.98;18.17;;;;;;;11.01;91.27;102137.53;5095341;28;20097;-71
2022/06/02 06:59:36;;;;;;;22.38;17.60;;;;;;;11.15;92.57;102147.06;5095667;28;20089;-71
2022/06/02 07:02:36;;;;;;;19.00;16.70;;;;;;;11.30;91.42;102148.72;5081118;28;20028;-71
2022/06/02 07:05:11;;;;;;;26.15;15.90;;;;;;;11.47;90.73;102152.97;5095471;28;20024;-71
2022/06/02 07:07:59;;;;;;;18.63;16.33;;;;;;;11.63;89.14;102148.50;5094457;28;20032;-72
2022/06/02 07:10:35;;;;;;;17.45;15.40;;;;;;;11.75;87.63;102152.78;5095064;28;20059;-71
2022/06/02 07:13:12;;;;;;;17.33;14.65;;;;;;;11.99;87.15;102145.66;5095444;28;20446;-71
2022/06/02 07:15:51;;;;;;;19.63;13.85;;;;;;;12.28;87.85;102150.63;5094190;28;20052;-71
2022/06/02 07:18:22;;;;;;;18.05;13.32;;;;;;;12.50;83.85;102156.50;5095279;28;20107;-71
2022/06/02 07:21:03;;;;;;;19.60;13.23;;;;;;;12.65;82.93;102154.59;5093989;28;20069;-72
2022/06/02 07:23:54;;;;;;;19.15;13.40;;;;;;;12.86;81.85;102169.19;5095243;28;20047;-71
2022/06/02 07:26:52;;;;;;;13.43;10.90;;;;;;;13.02;82.44;102161.16;5094923;28;20112;-71
2022/06/02 07:29:55;;;;;;;9.75;8.75;;;;;;;12.96;81.37;102167.31;5094158;28;20089;-71
2022/06/02 07:32:26;;;;;;;9.63;7.30;;;;;;;12.91;77.89;102171.72;5095050;28;20032;-71
2022/06/02 07:35:17;;;;;;;9.73;6.93;;;;;;;13.02;77.09;102169.88;5092949;28;20111;-72
2022/06/02 07:38:22;;;;;;;12.73;9.10;;;;;;;13.41;78.11;102169.41;5094384;28;20028;-71
2022/06/02 07:40:49;;;;;;;;;;;;;;;13.68;80.89;102165.50;5094869;28;20020;-71
2022/06/02 07:43:46;;;;;;;12.05;8.02;;;;;;;14.11;76.50;102163.03;5093939;28;19912;-71
2022/06/02 07:46:21;;;;;;;7.43;6.28;;;;;;;14.52;71.37;102159.72;5094601;28;20459;-71
2022/06/02 07:49:11;;;;;;;8.98;7.00;;;;;;;14.83;73.00;102164.34;5094072;28;20479;-71
2022/06/02 07:51:53;;;;;;;9.85;8.68;;;;;;;15.02;71.32;102156.97;5094373;28;20036;-72
2022/06/02 07:54:35;;;;;;;11.98;8.13;;;;;;;15.02;71.82;102156.97;5094204;28;20115;-72
2022/06/02 07:57:20;;;;;;;8.18;7.20;;;;;;;15.20;72.05;102161.84;5093749;28;20052;-71
2022/06/02 08:00:03;;;;;;;8.18;6.68;;;;;;;15.34;69.10;102147.53;5094196;28;20028;-71
2022/06/02 08:02:40;;;;;;;8.88;6.85;;;;;;;15.30;66.68;102151.09;5094250;28;20024;-71
2022/06/02 08:05:31;;;;;;;8.82;7.00;;;;;;;15.26;68.15;102157.31;5093654;28;20081;-72
2022/06/02 08:08:02;;;;;;;6.60;5.85;;;;;;;15.03;62.95;102155.19;5094305;28;20376;-71
2022/06/02 08:10:43;;;;;;;7.65;6.55;;;;;;;14.98;68.02;102155.31;5093432;28;20459;-72
2022/06/02 08:13:14;;;;;;;9.30;6.80;;;;;;;15.00;65.65;102156.13;5094100;28;20032;-72
2022/06/02 08:16:08;;;;;;;10.38;7.50;;;;;;;15.11;67.81;102154.16;5093916;28;20032;-72
2022/06/02 08:18:58;;;;;;;6.63;5.90;;;;;;;15.30;68.39;102151.09;5092901;28;20035;-71
2022/06/02 08:21:38;;;;;;;7.90;6.22;;;;;;;15.53;69.36;102148.84;5093943;28;20020;-72
2022/06/02 08:24:33;;;;;;;4.80;4.30;;;;;;;15.53;64.34;102147.94;5093463;28;20035;-72
2022/06/02 08:27:13;;;;;;;5.60;4.20;;;;;;;15.62;64.92;102153.00;5093837;28;20480;-71
2022/06/02 08:29:53;;;;;;;3.28;2.97;;;;;;;15.85;61.38;102155.94;5093426;28;20028;-72
2022/06/02 08:32:48;;;;;;;4.50;3.75;;;;;;;16.04;60.33;102148.47;5093151;28;20037;-72
2022/06/02 08:35:34;;;;;;;3.67;3.28;;;;;;;16.32;59.53;102155.66;5093803;28;20032;-71
2022/06/02 08:38:17;;;;;;;5.07;4.57;;;;;;;16.43;62.25;102163.28;5093667;28;20028;-72
2022/06/02 08:41:33;;;;;;;10.50;9.23;;;;;;;16.51;64.39;102162.16;5093539;28;20027;-72
2022/06/02 08:44:17;;;;;;;10.63;8.35;;;;;;;16.52;61.52;102163.88;5093460;28;20468;-71
2022/06/02 08:47:17;;;;;;;10.73;7.25;;;;;;;16.49;62.39;102171.00;5092204;28;20085;-72
2022/06/02 08:50:09;;;;;;;6.93;5.82;;;;;;;16.33;61.27;102170.53;5073309;28;20082;-72
2022/06/02 08:52:54;;;;;;;8.00;7.03;;;;;;;16.16;61.89;102176.25;5092230;28;20433;-72
2022/06/02 08:55:48;;;;;;;8.55;6.65;;;;;;;15.99;62.03;102176.69;5093184;28;20052;-72
2022/06/02 08:58:38;;;;;;;7.90;6.85;;;;;;;15.73;63.51;102172.06;5093487;28;20026;-72
2022/06/02 09:01:21;;;;;;;7.60;6.75;;;;;;;15.34;63.69;102177.28;5092416;28;20028;-72
2022/06/02 09:04:19;;;;;;;7.85;7.00;;;;;;;15.05;62.40;102170.03;5093110;28;20032;-72
2022/06/02 09:06:47;;;;;;;8.63;6.60;;;;;;;15.26;63.49;102173.94;5092052;28;20059;-72
2022/06/02 09:09:40;;;;;;;8.30;7.47;;;;;;;15.61;63.89;102167.91;5093098;28;20052;-72
2022/06/02 09:12:30;;;;;;;8.85;7.78;;;;;;;16.00;60.43;102165.25;5093124;28;20421;-72
2022/06/02 09:15:34;;;;;;;8.95;6.75;;;;;;;16.17;62.02;102174.47;5092260;28;20130;-72
2022/06/02 09:18:16;;;;;;;8.00;5.63;;;;;;;16.38;59.19;102171.28;5093287;28;20032;-71
2022/06/02 09:21:06;;;;;;;8.70;5.63;;;;;;;16.69;60.69;102170.47;5092086;28;20273;-71
2022/06/02 09:23:58;;;;;;;7.90;5.70;;;;;;;16.78;60.55;102176.38;5092719;28;20036;-72
2022/06/02 09:27:01;;;;;;;10.07;6.40;;;;;;;16.72;56.82;102165.09;5093133;28;20038;-72
2022/06/02 09:29:47;;;;;;;6.40;5.72;;;;;;;16.49;58.23;102163.09;5092134;28;20032;-72
2022/06/02 09:32:31;;;;;;;7.20;5.80;;;;;;;16.38;60.81;102166.00;5092777;28;20032;-72
2022/06/02 09:35:11;;;;;;;8.55;6.43;;;;;;;16.35;59.78;102159.09;5091952;28;20713;-72
2022/06/02 09:38:17;;;;;;;9.40;6.95;;;;;;;16.45;60.92;102164.97;5092693;28;20042;-72
2022/06/02 09:40:48;;;;;;;10.52;7.35;;;;;;;16.32;58.10;102164.44;5092527;28;20028;-72
2022/06/02 09:43:13;;;;;;;7.40;6.70;;;;;;;16.44;55.40;102162.34;5092214;28;20024;-72
2022/06/02 09:45:47;;;;;;;7.40;6.03;;;;;;;16.65;57.24;102158.28;5092436;28;20510;-71
2022/06/02 09:48:31;;;;;;;7.70;6.90;;;;;;;16.92;59.80;102161.94;5092820;28;20361;-72
2022/06/02 09:51:12;;;;;;;9.98;6.10;;;;;;;17.19;58.76;102158.47;5092708;28;20095;-72
2022/06/02 09:53:44;;;;;;;8.52;6.65;;;;;;;17.04;52.87;102151.91;5092444;28;20463;-72
2022/06/02 09:56:25;;;;;;;7.65;6.28;;;;;;;16.87;57.27;102155.91;5091767;28;20048;-72
2022/06/02 09:59:17;;;;;;;7.70;6.10;;;;;;;17.08;57.97;102152.66;5095660;28;20039;-72
2022/06/02 10:02:11;;;;;;;7.28;6.57;;;;;;;17.24;56.79;102159.19;5096586;28;20032;-72
2022/06/02 10:05:20;;;;;;;6.63;6.03;;;;;;;17.47;56.03;102155.84;5095354;28;20067;-72
2022/06/02 10:07:57;;;;;;;6.95;5.82;;;;;;;17.68;54.74;102153.44;5096186;28;20028;-71
2022/06/02 10:10:28;;;;;;;8.85;5.47;;;;;;;17.58;56.23;102150.22;5095714;28;20414;-72
2022/06/02 10:13:08;;;;;;;8.07;7.22;;;;;;;17.49;54.78;102153.16;5096301;28;20020;-72
2022/06/02 10:15:49;;;;;;;7.55;6.75;;;;;;;17.53;55.97;102149.53;5096155;28;20035;-72
2022/06/02 10:18:45;;;;;;;7.32;6.55;;;;;;;17.86;55.71;102141.47;5095560;28;20032;-72
2022/06/02 10:21:25;;;;;;;6.82;6.15;;;;;;;18.05;53.52;102146.97;5096343;28;20031;-72
2022/06/02 10:24:23;;;;;;;7.82;6.53;;;;;;;18.29;51.52;102140.84;5095244;28;20197;-72
2022/06/02 10:27:09;;;;;;;6.05;5.50;;;;;;;18.37;53.68;102143.22;5095781;28;20032;-72
2022/06/02 10:30:14;;;;;;;7.50;6.70;;;;;;;18.70;53.85;102147.31;5095924;28;20031;-72
2022/06/02 10:33:13;;;;;;;9.85;7.20;;;;;;;18.62;54.87;102146.72;5094851;28;20032;-72
2022/06/02 10:36:25;;;;;;;10.00;7.55;;;;;;;18.83;54.63;102150.34;5095861;28;20114;-72
2022/06/02 10:38:56;;;;;;;10.07;7.72;;;;;;;19.36;53.46;102144.81;5094713;28;20051;-72
2022/06/02 10:41:52;;;;;;;8.02;6.80;;;;;;;19.45;51.30;102134.78;5095748;28;20049;-72
2022/06/02 10:44:21;;;;;;;6.68;6.00;;;;;;;18.79;49.01;102140.81;5096019;28;20027;-72
2022/06/02 10:47:20;;;;;;;7.22;5.93;;;;;;;18.42;51.27;102141.28;5094658;28;20028;-72
2022/06/02 10:49:53;;;;;;;8.07;6.60;;;;;;;18.86;50.15;102128.25;5095303;28;20020;-72
2022/06/02 10:52:40;;;;;;;7.13;6.43;;;;;;;19.21;51.14;102133.97;5095092;28;20031;-72
2022/06/02 10:55:26;;;;;;;7.45;6.28;;;;;;;19.60;48.43;102123.59;5095618;28;20087;-72
2022/06/02 10:58:00;;;;;;;7.03;6.32;;;;;;;20.08;52.70;102128.63;5095220;28;20027;-72
2022/06/02 11:00:54;;;;;;;7.90;7.10;;;;;;;20.10;49.62;102123.25;5094942;28;20062;-72
2022/06/02 11:03:50;;;;;;;7.15;6.30;;;;;;;20.32;47.59;102125.84;5095617;28;20032;-72
2022/06/02 11:06:36;;;;;;;5.65;5.13;;;;;;;20.65;49.59;102126.16;5094504;28;20036;-72
2022/06/02 11:09:39;;;;;;;5.53;4.72;;;;;;;20.96;47.80;102125.63;5094090;28;20028;-72
2022/06/02 11:12:24;;;;;;;4.93;4.35;;;;;;;21.25;46.48;102121.59;5095192;28;20478;-72
2022/06/02 11:15:09;;;;;;;6.22;5.60;;;;;;;21.37;45.57;102124.59;5062646;28;20051;-72
2022/06/02 11:18:02;;;;;;;6.10;5.22;;;;;;;21.43;45.37;102124.31;5095035;28;20024;-72
2022/06/02 11:21:08;;;;;;;7.78;5.68;;;;;;;21.43;45.86;102113.69;5094340;28;20028;-73
2022/06/02 11:23:55;;;;;;;5.30;4.80;;;;;;;21.67;45.96;102116.91;5094669;28;20024;-73
2022/06/02 11:26:38;;;;;;;5.35;4.65;;;;;;;21.92;41.34;102111.25;5095034;28;20042;-72
2022/06/02 11:29:16;;;;;;;;;;;;;;;22.34;44.18;102117.94;5094687;28;20064;-73
2022/06/02 11:31:53;;;;;;;4.53;4.13;;;;;;;22.40;40.94;102107.00;5094603;28;19915;-73
2022/06/02 11:34:24;;;;;;;4.50;4.10;;;;;;;22.37;37.73;102108.00;5094287;28;20062;-72
2022/06/02 11:37:28;;;;;;;4.85;4.35;;;;;;;22.65;42.14;102106.53;5094713;28;20925;-72
2022/06/02 11:40:08;;;;;;;4.13;3.72;;;;;;;22.83;41.86;102099.34;5094703;28;20051;-73
2022/06/02 11:43:02;;;;;;;4.20;3.80;;;;;;;23.00;42.43;102098.44;5093721;28;20036;-73
2022/06/02 11:45:46;;;;;;;;;;;;;;;23.46;41.58;102091.34;5095009;28;20024;-72
2022/06/02 11:48:20;;;;;;;;;;;;;;;24.12;40.36;102087.47;5094462;28;19934;-73
2022/06/02 11:50:51;;;;;;;5.57;5.07;;;;;;;24.81;34.28;102083.19;5094352;28;19912;-73
2022/06/02 11:53:45;;;;;;;4.47;4.07;;;;;;;26.18;36.45;102080.28;5094599;28;20028;-73
2022/06/02 11:56:28;;;;;;;4.07;3.78;;;;;;;27.88;33.04;102066.97;5093362;28;20052;-73
2022/06/02 11:59:21;;;;;;;4.30;3.50;;;;;;;29.09;30.40;102074.28;5094313;28;20024;-73
2022/06/02 12:01:56;;;;;;;4.45;4.05;;;;;;;29.75;26.89;102054.44;5094036;28;20481;-73
2022/06/02 12:04:54;;;;;;;5.05;4.18;;;;;;;30.20;27.73;102068.47;5093397;28;20031;-73
2022/06/02 12:07:40;;;;;;;6.10;5.05;;;;;;;27.55;29.94;102068.56;5094154;28;20081;-73
2022/06/02 12:10:27;;;;;;;5.47;5.05;;;;;;;25.28;33.90;102067.72;5093362;28;20471;-73
2022/06/02 12:12:55;;;;;;;4.70;4.20;;;;;;;24.56;34.03;102069.69;5094082;28;20028;-73
2022/06/02 12:15:42;;;;;;;4.22;3.65;;;;;;;26.79;32.45;102057.22;5094229;28;20025;-73
2022/06/02 12:18:16;;;;;;;4.93;4.13;;;;;;;29.21;29.10;102050.06;5093307;28;20476;-73
2022/06/02 12:21:00;;;;;;;4.03;3.58;;;;;;;30.64;28.61;102046.66;5093510;28;20050;-73
2022/06/02 12:24:08;;;;;;;5.15;4.75;;;;;;;31.35;25.38;102033.88;5093287;28;20094;-73
2022/06/02 12:26:49;;;;;;;6.38;4.38;;;;;;;31.57;25.39;102035.41;5093018;28;20078;-73
2022/06/02 12:29:41;;;;;;;4.50;4.10;;;;;;;31.97;24.38;102036.19;5093760;28;20086;-73
2022/06/02 12:32:34;;;;;;;5.00;4.13;;;;;;;32.43;26.30;102037.16;5093113;28;20396;-73
2022/06/02 12:35:33;;;;;;;4.57;4.18;;;;;;;32.88;24.90;102037.97;5093674;28;20475;-73
2022/06/02 12:38:24;;;;;;;4.40;4.00;;;;;;;33.48;24.43;102036.50;5093096;28;20028;-73
2022/06/02 12:41:18;;;;;;;4.50;4.10;;;;;;;33.75;24.20;102031.00;5093505;28;20352;-73
2022/06/02 12:43:56;;;;;;;4.68;4.20;;;;;;;32.46;22.86;102026.06;5093353;28;20420;-73
2022/06/02 12:46:21;;;;;;;4.63;4.15;;;;;;;31.90;22.53;102025.97;5092856;28;20111;-73